createdAt,value
2017-07-24T04:31:02.546Z,6.37
2017-07-24T04:33:29.826Z,8.17
2017-07-24T04:35:57.341Z,8.90
2017-07-24T04:38:25.480Z,7.40
2017-07-24T04:40:52.252Z,7.00
2017-07-24T04:43:19.263Z,8.37
2017-07-24T04:45:46.150Z,8.40
2017-07-24T04:48:13.369Z,9.03
2017-07-24T04:50:40.866Z,9.07
2017-07-24T04:53:08.335Z,9.10
2017-07-24T04:55:35.449Z,8.60
2017-07-24T04:58:03.323Z,8.23
2017-07-24T05:00:30.135Z,9.20
2017-07-24T05:02:56.938Z,9.00
2017-07-24T05:05:23.968Z,8.37
2017-07-24T05:07:51.018Z,7.57
2017-07-24T05:10:18.273Z,7.40
2017-07-24T05:12:45.771Z,8.27
2017-07-24T05:15:12.607Z,7.90
2017-07-24T05:17:39.847Z,8.33
2017-07-24T05:20:06.744Z,9.27
2017-07-24T05:22:34.070Z,8.90
2017-07-24T05:25:01.314Z,8.37
2017-07-24T05:27:28.369Z,8.40
2017-07-24T05:29:55.181Z,7.83
2017-07-24T05:32:22.164Z,7.50
2017-07-24T05:34:49.049Z,8.37
2017-07-24T05:37:16.278Z,7.70
2017-07-24T05:39:43.890Z,7.00
2017-07-24T05:42:10.674Z,6.90
2017-07-24T05:44:38.170Z,7.97
2017-07-24T05:47:05.238Z,8.87
2017-07-24T05:49:32.458Z,7.60
2017-07-24T05:52:00.372Z,7.30
2017-07-24T05:54:27.151Z,6.40
2017-07-24T05:56:54.539Z,6.80
2017-07-24T05:59:22.323Z,5.57
2017-07-24T06:01:49.091Z,6.23
2017-07-24T06:04:16.190Z,5.50
2017-07-24T06:06:43.963Z,5.30
2017-07-24T06:09:11.033Z,5.73
2017-07-24T06:11:38.611Z,5.30
2017-07-24T06:14:05.906Z,4.70
2017-07-24T06:16:33.110Z,5.73
2017-07-24T06:19:00.003Z,6.03
2017-07-24T06:21:27.219Z,6.47
2017-07-24T06:23:54.106Z,3.97
2017-07-24T06:26:20.881Z,4.00
2017-07-24T06:28:48.074Z,4.13
2017-07-24T06:31:15.736Z,4.33
2017-07-24T06:33:42.499Z,3.57
2017-07-24T06:36:09.344Z,4.00
2017-07-24T06:38:36.129Z,3.83
2017-07-24T06:41:03.159Z,3.83
2017-07-24T06:43:29.985Z,3.27
2017-07-24T06:45:57.135Z,3.50
2017-07-24T06:48:24.186Z,3.93
2017-07-24T06:50:51.689Z,3.70
2017-07-24T06:53:19.529Z,3.60
2017-07-24T06:55:46.748Z,3.43
2017-07-24T06:58:14.038Z,3.37
2017-07-24T07:00:40.923Z,3.70
2017-07-24T07:03:07.835Z,4.07
2017-07-24T07:05:34.646Z,3.80
2017-07-24T07:08:01.637Z,3.83
2017-07-24T07:10:29.310Z,3.50
2017-07-24T07:12:56.358Z,4.00
2017-07-24T07:15:23.245Z,3.80
2017-07-24T07:17:50.004Z,3.70
2017-07-24T07:20:17.076Z,4.17
2017-07-24T07:22:43.848Z,3.60
2017-07-24T07:25:10.633Z,3.70
2017-07-24T07:27:37.441Z,3.63
2017-07-24T07:30:04.928Z,4.03
2017-07-24T07:32:32.293Z,4.23
2017-07-24T07:34:59.529Z,5.13
2017-07-24T07:37:26.645Z,4.50
2017-07-24T07:39:53.597Z,4.93
2017-07-24T07:42:21.229Z,4.60
2017-07-24T07:44:48.191Z,5.60
2017-07-24T07:47:15.518Z,4.40
2017-07-24T07:49:42.929Z,4.50
2017-07-24T07:52:10.148Z,5.00
2017-07-24T07:54:37.935Z,4.83
2017-07-24T07:57:05.155Z,4.40
2017-07-24T07:59:31.923Z,4.40
2017-07-24T08:01:58.794Z,5.33
2017-07-24T08:04:26.008Z,4.80
2017-07-24T08:06:52.894Z,5.17
2017-07-24T08:09:19.684Z,6.00
2017-07-24T08:11:47.041Z,5.20
2017-07-24T08:14:14.459Z,5.40
2017-07-24T08:16:41.848Z,5.17
2017-07-24T08:19:09.121Z,5.43
2017-07-24T08:21:36.300Z,4.80
2017-07-24T08:24:03.362Z,4.73
2017-07-24T08:26:30.406Z,6.13
2017-07-24T08:28:57.294Z,6.00
2017-07-24T08:31:24.509Z,6.07
2017-07-24T08:33:52.076Z,6.10
2017-07-24T08:36:19.789Z,8.47
2017-07-24T08:38:46.734Z,6.50
2017-07-24T08:41:13.559Z,5.43
2017-07-24T08:43:40.550Z,6.50
2017-07-24T08:46:08.311Z,6.77
2017-07-24T08:48:36.029Z,5.50
2017-07-24T08:51:03.547Z,5.53
2017-07-24T08:53:30.324Z,6.20
2017-07-24T08:55:57.500Z,8.00
2017-07-24T08:58:24.744Z,10.17
2017-07-24T09:00:51.987Z,8.70
2017-07-24T09:03:19.273Z,9.83
2017-07-24T09:05:46.177Z,7.70
2017-07-24T09:08:13.071Z,8.47
2017-07-24T09:10:39.886Z,8.27
2017-07-24T09:13:06.680Z,6.80
2017-07-24T09:15:34.537Z,8.47
2017-07-24T09:18:01.359Z,7.90
2017-07-24T09:20:28.656Z,8.50
2017-07-24T09:22:56.004Z,8.77
2017-07-24T09:25:23.136Z,9.83
2017-07-24T09:27:49.912Z,9.63
2017-07-24T09:30:17.161Z,10.60
2017-07-24T09:32:43.992Z,9.10
2017-07-24T09:35:11.461Z,10.60
2017-07-24T09:37:39.222Z,10.30
2017-07-24T09:40:06.579Z,10.67
2017-07-24T09:42:34.268Z,9.80
2017-07-24T09:45:01.525Z,10.40
2017-07-24T09:47:28.912Z,9.60
2017-07-24T09:49:56.292Z,9.40
2017-07-24T09:52:24.017Z,10.97
2017-07-24T09:54:51.246Z,9.20
2017-07-24T09:57:18.630Z,10.67
2017-07-24T09:59:45.627Z,9.73
2017-07-24T10:02:12.844Z,9.17
2017-07-24T10:04:39.647Z,8.63
2017-07-24T10:07:07.013Z,7.07
2017-07-24T10:09:34.312Z,7.50
2017-07-24T10:12:01.364Z,7.17
2017-07-24T10:14:28.246Z,7.30
2017-07-24T10:16:55.777Z,7.20
2017-07-24T10:19:22.830Z,6.90
2017-07-24T10:21:49.634Z,7.07
2017-07-24T10:24:16.933Z,8.27
2017-07-24T10:26:43.823Z,8.63
2017-07-24T10:29:11.347Z,17.00
2017-07-24T10:31:38.576Z,8.20
2017-07-24T10:34:06.505Z,10.00
2017-07-24T10:36:34.311Z,9.67
2017-07-24T10:39:01.403Z,6.57
2017-07-24T10:41:28.457Z,7.43
2017-07-24T10:43:55.511Z,7.37
2017-07-24T10:46:22.781Z,6.50
2017-07-24T10:48:49.993Z,5.90
2017-07-24T10:51:16.755Z,6.30
2017-07-24T10:53:44.036Z,6.30
2017-07-24T10:56:11.422Z,6.60
2017-07-24T10:58:38.292Z,5.90
2017-07-24T11:01:05.460Z,6.60
2017-07-24T11:03:32.384Z,5.90
2017-07-24T11:05:59.292Z,6.20
2017-07-24T11:08:26.186Z,6.17
2017-07-24T11:10:53.401Z,6.30
2017-07-24T11:13:20.165Z,5.80
2017-07-24T11:15:47.200Z,5.73
2017-07-24T11:18:14.086Z,5.40
2017-07-24T11:20:41.029Z,5.57
2017-07-24T11:23:08.399Z,5.17
2017-07-24T11:25:35.413Z,5.03
2017-07-24T11:28:02.302Z,5.30
2017-07-24T11:30:29.518Z,5.50
2017-07-24T11:32:56.570Z,5.17
2017-07-24T11:35:24.239Z,4.67
2017-07-24T11:37:51.583Z,5.10
2017-07-24T11:40:18.652Z,4.90
2017-07-24T11:42:45.710Z,4.77
2017-07-24T11:45:12.758Z,4.67
2017-07-24T11:47:39.532Z,4.90
2017-07-24T11:50:06.559Z,5.17
2017-07-24T11:52:33.610Z,4.63
2017-07-24T11:55:01.465Z,4.70
2017-07-24T11:57:28.910Z,5.10
2017-07-24T11:59:56.177Z,5.37
2017-07-24T12:02:23.363Z,4.37
2017-07-24T12:04:51.027Z,4.50
2017-07-24T12:09:51.279Z,5.00
2017-07-24T12:12:18.838Z,6.20
2017-07-24T12:14:45.710Z,6.27
2017-07-24T12:17:12.569Z,6.50
2017-07-24T12:19:39.791Z,6.50
2017-07-24T12:22:06.563Z,5.97
2017-07-24T12:24:35.142Z,7.00
2017-07-24T12:27:02.188Z,5.60
2017-07-24T12:29:29.284Z,4.43
2017-07-24T12:31:56.108Z,4.37
2017-07-24T12:34:23.662Z,3.50
2017-07-24T12:36:50.430Z,2.93
2017-07-24T12:39:17.547Z,4.03
2017-07-24T12:41:44.355Z,3.53
2017-07-24T12:44:11.382Z,3.90
2017-07-24T12:46:38.148Z,4.20
2017-07-24T12:49:05.600Z,4.00
2017-07-24T12:51:32.894Z,4.67
2017-07-24T12:54:00.069Z,5.83
2017-07-24T12:56:27.308Z,6.10
2017-07-24T12:58:54.087Z,6.00
2017-07-24T13:01:20.856Z,6.13
2017-07-24T13:03:47.973Z,6.50
2017-07-24T13:06:15.026Z,6.77
2017-07-24T13:08:42.885Z,6.40
2017-07-24T13:11:09.719Z,5.63
2017-07-24T13:13:36.634Z,5.40
2017-07-24T13:16:03.850Z,4.70
2017-07-24T13:18:30.908Z,5.33
2017-07-24T13:20:57.779Z,4.20
2017-07-24T13:23:25.266Z,4.40
2017-07-24T13:25:52.475Z,5.40
2017-07-24T13:28:21.984Z,5.30
2017-07-24T13:30:48.783Z,5.00
2017-07-24T13:33:16.093Z,5.50
2017-07-24T13:35:43.898Z,5.73
2017-07-24T13:38:10.950Z,5.67
2017-07-24T13:40:37.771Z,5.63
2017-07-24T13:43:04.913Z,6.43
2017-07-24T13:45:47.347Z,5.90
2017-07-24T13:48:14.111Z,6.10
2017-07-24T13:50:41.119Z,5.43
2017-07-24T13:53:08.168Z,4.93
2017-07-24T13:55:35.224Z,5.03
2017-07-24T13:58:01.996Z,5.00
2017-07-24T14:00:29.306Z,5.10
2017-07-24T14:02:56.599Z,5.40
2017-07-24T14:05:24.357Z,5.20
2017-07-24T14:07:51.412Z,5.50
2017-07-24T14:10:18.465Z,5.00
2017-07-24T14:12:45.517Z,5.27
2017-07-24T14:15:12.412Z,5.07
2017-07-24T14:17:39.180Z,4.90
2017-07-24T14:20:06.066Z,5.53
2017-07-24T14:22:32.945Z,6.13
2017-07-24T14:25:00.169Z,5.20
2017-07-24T14:27:27.223Z,6.57
2017-07-24T14:29:54.272Z,5.70
2017-07-24T14:32:21.162Z,5.77
2017-07-24T14:34:48.381Z,5.70
2017-07-24T14:37:15.435Z,5.70
2017-07-24T14:39:42.484Z,5.23
2017-07-24T14:42:09.391Z,5.20
2017-07-24T14:44:36.591Z,4.90
2017-07-24T14:47:04.135Z,5.43
2017-07-24T14:49:30.895Z,5.30
2017-07-24T14:51:58.818Z,5.30
2017-07-24T14:54:26.034Z,5.07
2017-07-24T14:56:53.086Z,5.10
2017-07-24T14:59:19.927Z,5.03
2017-07-24T15:01:47.194Z,5.53
2017-07-24T15:04:14.251Z,5.40
2017-07-24T15:06:41.460Z,4.90
2017-07-24T15:09:08.355Z,5.30
2017-07-24T15:11:35.736Z,6.90
2017-07-24T15:14:02.766Z,6.70
2017-07-24T15:16:29.819Z,6.77
2017-07-24T15:18:56.871Z,7.00
2017-07-24T15:21:24.476Z,7.47
2017-07-24T15:23:51.847Z,7.07
2017-07-24T15:26:18.951Z,7.37
2017-07-24T15:28:46.004Z,8.07
2017-07-24T15:31:13.621Z,6.30
2017-07-24T15:33:41.341Z,6.77
2017-07-24T15:36:08.140Z,8.70
2017-07-24T15:38:35.138Z,8.33
2017-07-24T15:41:01.942Z,8.00
2017-07-24T15:43:29.807Z,8.50
2017-07-24T15:45:56.910Z,9.23
2017-07-24T15:48:23.962Z,9.70
2017-07-24T15:50:50.850Z,10.70
2017-07-24T15:53:18.071Z,8.83
2017-07-24T15:55:45.124Z,9.50
2017-07-24T15:58:12.792Z,9.23
2017-07-24T16:00:39.675Z,7.53
2017-07-24T16:03:06.588Z,5.40
2017-07-24T16:05:34.254Z,6.27
2017-07-24T16:08:01.150Z,6.03
2017-07-24T16:10:28.362Z,5.30
2017-07-24T16:12:55.638Z,5.87
2017-07-24T16:15:22.777Z,5.93
2017-07-24T16:17:50.402Z,5.83
2017-07-24T16:20:17.328Z,5.53
2017-07-24T16:22:44.096Z,5.80
2017-07-24T16:25:11.293Z,5.50
2017-07-24T16:27:38.183Z,5.97
2017-07-24T16:30:05.239Z,5.70
2017-07-24T16:32:32.455Z,5.70
2017-07-24T16:34:59.522Z,6.87
2017-07-24T16:37:27.261Z,6.37
2017-07-24T16:39:54.537Z,6.80
2017-07-24T16:42:21.392Z,5.83
2017-07-24T16:44:48.943Z,5.80
2017-07-24T16:47:15.842Z,6.10
2017-07-24T16:49:42.744Z,6.53
2017-07-24T16:52:10.414Z,5.50
2017-07-24T16:54:37.468Z,5.50
2017-07-24T16:57:04.355Z,5.63
2017-07-24T16:59:31.574Z,5.00
2017-07-24T17:01:58.626Z,5.20
2017-07-24T17:04:26.225Z,5.20
2017-07-24T17:06:53.187Z,5.30
2017-07-24T17:09:20.978Z,4.93
2017-07-24T17:11:47.901Z,5.30
2017-07-24T17:14:15.380Z,5.50
2017-07-24T17:16:42.714Z,5.43
2017-07-24T17:19:09.841Z,4.70
2017-07-24T17:21:36.893Z,3.93
2017-07-24T17:24:04.744Z,4.13
2017-07-24T17:26:31.739Z,5.13
2017-07-24T17:28:58.815Z,4.97
2017-07-24T17:31:25.858Z,5.30
2017-07-24T17:33:52.773Z,5.20
2017-07-24T17:36:20.287Z,4.60
2017-07-24T17:38:47.063Z,5.90
2017-07-24T17:41:14.242Z,7.07
2017-07-24T17:43:42.055Z,6.40
2017-07-24T17:46:10.404Z,5.60
2017-07-24T17:48:37.769Z,5.20
2017-07-24T17:51:05.660Z,5.50
2017-07-24T17:53:33.175Z,5.93
2017-07-24T17:56:01.673Z,6.03
2017-07-24T17:58:28.466Z,6.73
2017-07-24T18:00:55.416Z,4.90
2017-07-24T18:03:22.632Z,4.80
2017-07-24T18:05:49.514Z,4.50
2017-07-24T18:08:17.954Z,5.20
2017-07-24T18:10:45.327Z,5.40
2017-07-24T18:13:12.376Z,4.93
2017-07-24T18:15:39.251Z,5.23
2017-07-24T18:18:06.493Z,4.17
2017-07-24T18:20:33.364Z,4.70
2017-07-24T18:23:00.136Z,4.83
2017-07-24T18:25:27.171Z,4.37
2017-07-24T18:27:54.387Z,4.20
2017-07-24T18:30:21.439Z,4.70
2017-07-24T18:32:48.704Z,4.37
2017-07-24T18:35:18.928Z,4.43
2017-07-24T18:37:46.923Z,4.40
2017-07-24T18:40:13.948Z,5.23
2017-07-24T18:42:41.878Z,4.23
2017-07-24T18:45:09.538Z,4.60
2017-07-24T18:47:36.951Z,4.53
2017-07-24T18:50:04.010Z,4.80
2017-07-24T18:52:30.816Z,4.40
2017-07-24T18:54:58.111Z,4.10
2017-07-24T18:57:24.891Z,4.30
2017-07-24T18:59:51.909Z,4.90
2017-07-24T19:02:18.960Z,4.67
2017-07-24T19:04:45.850Z,4.70
2017-07-24T19:07:13.478Z,5.00
2017-07-24T19:09:40.379Z,4.30
2017-07-24T19:12:07.151Z,4.80
2017-07-24T19:14:34.331Z,5.03
2017-07-24T19:17:01.384Z,5.37
2017-07-24T19:19:29.050Z,4.70
2017-07-24T19:21:56.103Z,5.27
2017-07-24T19:24:23.159Z,5.07
2017-07-24T19:26:50.824Z,5.30
2017-07-24T19:29:18.213Z,5.37
2017-07-24T19:31:45.239Z,5.30
2017-07-24T19:34:12.292Z,5.10
2017-07-24T19:36:39.340Z,5.30
2017-07-24T19:39:06.220Z,5.00
2017-07-24T19:41:33.758Z,5.23
2017-07-24T19:44:01.688Z,5.10
2017-07-24T19:46:28.969Z,5.50
2017-07-24T19:48:56.144Z,5.50
2017-07-24T19:51:23.198Z,5.77
2017-07-24T19:53:51.169Z,5.60
2017-07-24T19:56:18.222Z,4.70
2017-07-24T19:58:44.996Z,5.40
2017-07-24T20:01:12.024Z,5.40
2017-07-24T20:03:39.076Z,5.37
2017-07-24T20:06:06.130Z,5.00
2017-07-24T20:08:32.941Z,5.50
2017-07-24T20:10:59.929Z,6.37
2017-07-24T20:13:27.178Z,5.63
2017-07-24T20:15:54.179Z,6.23
2017-07-24T20:18:22.039Z,5.20
2017-07-24T20:20:48.832Z,5.90
2017-07-24T20:23:16.112Z,5.43
2017-07-24T20:25:42.999Z,6.33
2017-07-24T20:28:10.342Z,5.93
2017-07-24T20:30:38.103Z,5.27
2017-07-24T20:33:05.081Z,5.53
2017-07-24T20:35:32.819Z,5.90
2017-07-24T20:37:59.803Z,6.00
2017-07-24T20:40:27.490Z,5.50
2017-07-24T20:42:55.122Z,5.50
2017-07-24T20:45:22.672Z,5.70
2017-07-24T20:47:49.828Z,5.40
2017-07-24T20:50:17.272Z,5.80
2017-07-24T20:52:44.844Z,5.80
2017-07-24T20:55:12.348Z,6.30
2017-07-24T20:57:39.395Z,6.00
2017-07-24T21:00:06.457Z,5.87
2017-07-24T21:02:33.827Z,5.30
2017-07-24T21:05:00.595Z,5.40
2017-07-24T21:07:28.218Z,5.70
2017-07-24T21:09:55.592Z,4.30
2017-07-24T21:12:22.642Z,5.10
2017-07-24T21:14:50.015Z,5.00
2017-07-24T21:17:17.363Z,4.77
2017-07-24T21:19:44.141Z,4.90
2017-07-24T21:22:11.329Z,4.13
2017-07-24T21:24:38.200Z,4.53
2017-07-24T21:27:05.458Z,3.73
2017-07-24T21:29:32.485Z,3.20
2017-07-24T21:32:00.564Z,3.60
2017-07-24T21:34:27.824Z,3.80
2017-07-24T21:36:54.642Z,3.53
2017-07-24T21:39:21.920Z,3.77
2017-07-24T21:41:49.676Z,3.60
2017-07-24T21:44:16.782Z,3.60
2017-07-24T21:46:44.028Z,3.90
2017-07-24T21:49:10.896Z,3.93
2017-07-24T21:51:37.946Z,4.37
2017-07-24T21:54:05.339Z,3.90
2017-07-24T21:56:32.175Z,3.80
2017-07-24T21:59:00.152Z,4.20
2017-07-24T22:01:26.979Z,4.40
2017-07-24T22:03:54.349Z,3.80
2017-07-24T22:06:21.853Z,3.90
2017-07-24T22:08:49.055Z,3.30
2017-07-24T22:11:16.590Z,3.50
2017-07-24T22:13:43.392Z,3.77
2017-07-24T22:16:10.381Z,4.13
2017-07-24T22:18:38.792Z,3.53
